Time;durP1;ratioP1;P1;durP2;ratioP2;P2;SDS_P1;SDS_P2;PMS_P1;PMS_P2;Temp;Humidity;BMP_temperature;BMP_pressure;BME280_temperature;BME280_humidity;BME280_pressure;Samples;Min_cycle;Max_cycle;Signal;HPM_P1;HPM_P2
2022/05/23 00:02:02;;;;;;;7.80;7.10;;;;;;;22.53;40.99;94646.59;6202610;28;102741;-65
2022/05/23 00:05:07;;;;;;;8.00;7.23;;;;;;;22.60;40.95;94640.78;6229108;27;102882;-64
2022/05/23 00:08:10;;;;;;;8.50;7.70;;;;;;;22.63;40.83;94635.59;6217033;28;102817;-64
2022/05/23 00:11:15;;;;;;;8.07;7.37;;;;;;;22.68;40.27;94639.94;6214906;28;102761;-64
2022/05/23 00:14:19;;;;;;;7.77;7.17;;;;;;;22.71;40.75;94647.34;6226381;28;103417;-65
2022/05/23 00:17:22;;;;;;;7.80;7.17;;;;;;;22.68;40.40;94640.75;6235170;28;102845;-65
2022/05/23 00:20:26;;;;;;;7.70;7.00;;;;;;;22.52;40.83;94637.00;6235674;28;102953;-64
2022/05/23 00:23:29;;;;;;;7.40;6.80;;;;;;;22.51;40.58;94640.75;6224610;28;103102;-64
2022/05/23 00:26:34;;;;;;;6.27;5.83;;;;;;;22.52;41.02;94634.34;6215233;28;103902;-64
2022/05/23 00:29:37;;;;;;;6.17;5.77;;;;;;;22.60;40.59;94643.44;6224655;28;103292;-64
2022/05/23 00:36:01;;;;;;;7.10;6.50;;;;;;;22.60;40.40;94633.56;6215106;28;103386;-62
2022/05/23 00:39:06;;;;;;;6.63;6.23;;;;;;;22.62;40.55;94636.69;6228829;28;103173;-65
2022/05/23 00:45:34;;;;;;;7.30;6.70;;;;;;;22.66;40.20;94640.28;6236087;28;103667;-65
2022/05/23 00:48:38;;;;;;;6.90;6.40;;;;;;;22.69;40.28;94634.31;6226958;28;103414;-64
2022/05/23 00:51:41;;;;;;;6.17;5.77;;;;;;;22.52;40.49;94639.69;6226359;28;103770;-66
2022/05/23 00:54:49;;;;;;;5.93;5.47;;;;;;;22.55;40.19;94640.94;6230507;28;102698;-64
2022/05/23 00:57:58;;;;;;;6.67;6.27;;;;;;;22.37;40.90;94630.31;6226891;28;102677;-64
2022/05/23 01:01:13;;;;;;;6.43;6.03;;;;;;;22.48;40.91;94635.28;6230703;28;103347;-66
2022/05/23 01:04:17;;;;;;;5.73;5.23;;;;;;;22.46;40.77;94643.59;6228805;28;102848;-65
2022/05/23 01:07:20;;;;;;;6.33;5.83;;;;;;;22.41;40.63;94644.56;6232553;28;102716;-64
2022/05/23 01:10:23;;;;;;;6.30;5.80;;;;;;;22.44;40.63;94637.81;6202516;28;103296;-64
2022/05/23 01:13:28;;;;;;;5.70;5.30;;;;;;;22.45;40.83;94641.25;6213433;28;102728;-64
2022/05/23 01:16:31;;;;;;;6.20;5.60;;;;;;;22.45;40.52;94646.59;6222275;28;102734;-64
2022/05/23 01:19:34;;;;;;;6.27;5.70;;;;;;;22.46;40.62;94643.59;6221321;28;102737;-64
2022/05/23 01:22:46;;;;;;;6.40;5.90;;;;;;;22.36;40.41;94638.63;6225372;28;105835;-61
2022/05/23 01:25:50;;;;;;;6.23;5.73;;;;;;;22.34;40.66;94630.13;6229703;28;102836;-64
2022/05/23 01:28:54;;;;;;;6.40;6.00;;;;;;;22.22;40.64;94624.69;6213776;28;102697;-64
2022/05/23 01:31:59;;;;;;;6.33;5.93;;;;;;;22.23;40.27;94626.25;6232157;28;103929;-64
2022/05/23 01:35:07;;;;;;;5.13;4.83;;;;;;;22.12;40.92;94617.78;6229816;28;102731;-65
2022/05/23 01:38:11;;;;;;;5.90;5.50;;;;;;;22.14;40.29;94620.91;6237046;28;102722;-62
2022/05/23 01:41:15;;;;;;;5.80;5.50;;;;;;;22.23;40.42;94615.59;6215305;28;102741;-64
2022/05/23 01:44:18;;;;;;;6.17;5.77;;;;;;;22.32;40.41;94624.34;6223857;28;102797;-64
2022/05/23 01:47:22;;;;;;;6.00;5.60;;;;;;;22.26;40.12;94615.72;6234642;28;103731;-64
2022/05/23 01:50:25;;;;;;;5.83;5.43;;;;;;;22.29;40.48;94616.97;6234036;28;103321;-61
2022/05/23 01:53:28;;;;;;;6.00;5.50;;;;;;;22.33;40.39;94623.25;6222363;28;102881;-61
2022/05/23 01:56:33;;;;;;;5.70;5.30;;;;;;;22.28;40.00;94626.84;6219480;28;103444;-61
2022/05/23 02:02:57;;;;;;;5.90;5.50;;;;;;;22.37;39.60;94630.31;6234051;28;104916;-61
2022/05/23 02:06:00;;;;;;;5.47;5.13;;;;;;;22.34;39.65;94622.13;6231806;28;102993;-61
2022/05/23 02:09:04;;;;;;;6.07;5.67;;;;;;;22.30;39.64;94618.53;6224310;28;102884;-61
2022/05/23 02:12:11;;;;;;;6.77;6.07;;;;;;;22.26;40.40;94617.63;6230088;28;103230;-61
2022/05/23 02:15:14;;;;;;;6.17;5.77;;;;;;;22.26;40.35;94617.63;6230922;28;102979;-61
2022/05/23 02:18:18;;;;;;;6.10;5.70;;;;;;;22.28;40.54;94618.06;6213600;28;102889;-61
2022/05/23 02:21:21;;;;;;;5.93;5.53;;;;;;;22.24;40.30;94620.59;6233691;28;102809;-58
2022/05/23 02:24:24;;;;;;;5.73;5.27;;;;;;;22.19;40.38;94623.44;6232546;28;102879;-59
2022/05/23 02:27:30;;;;;;;5.60;5.10;;;;;;;22.17;40.18;94627.50;6214639;28;103125;-58
2022/05/23 02:30:33;;;;;;;5.43;5.13;;;;;;;22.16;40.30;94632.03;6228102;28;103702;-59
2022/05/23 02:33:36;;;;;;;4.90;4.60;;;;;;;22.16;40.14;94639.25;6238852;28;102741;-59
2022/05/23 02:36:40;;;;;;;5.23;4.93;;;;;;;22.16;40.53;94629.38;6226558;28;103076;-59
2022/05/23 02:39:43;;;;;;;6.23;5.70;;;;;;;22.18;39.90;94632.53;6236457;28;103036;-59
2022/05/23 02:42:51;;;;;;;6.23;5.63;;;;;;;22.04;40.45;94627.38;6227451;27;103386;-59
2022/05/23 02:45:55;;;;;;;6.03;5.43;;;;;;;21.92;40.45;94624.56;6222456;28;102767;-59
2022/05/23 02:48:58;;;;;;;6.67;5.77;;;;;;;21.90;40.88;94629.41;6237787;28;102777;-59
2022/05/23 02:52:01;;;;;;;6.40;5.90;;;;;;;21.98;40.65;94631.28;6232849;28;103403;-59
2022/05/23 02:55:06;;;;;;;14.00;12.80;;;;;;;22.02;40.39;94642.13;6232948;28;106175;-59
2022/05/23 02:58:10;;;;;;;12.67;11.43;;;;;;;21.96;40.73;94630.81;6238421;28;102738;-59
2022/05/23 03:01:14;;;;;;;11.40;10.40;;;;;;;21.92;40.77;94623.78;6235969;28;103102;-59
2022/05/23 03:04:16;;;;;;;18.60;16.73;;;;;;;21.94;40.43;94627.69;6217598;28;102858;-59
2022/05/23 03:07:19;;;;;;;12.97;11.80;;;;;;;22.09;40.51;94640.53;6233144;28;102777;-59
2022/05/23 03:10:22;;;;;;;10.40;9.40;;;;;;;22.03;40.67;94639.13;6214227;28;102805;-59
2022/05/23 03:13:28;;;;;;;9.47;8.67;;;;;;;22.05;40.51;94634.28;6239063;28;103003;-59
2022/05/23 03:16:31;;;;;;;10.00;9.00;;;;;;;22.02;40.41;94629.56;6221466;28;103140;-58
2022/05/23 03:19:36;;;;;;;12.50;11.20;;;;;;;22.11;40.48;94625.00;6220543;28;102803;-61
2022/05/23 03:29:22;;;;;;;21.23;19.20;;;;;;;22.11;40.88;94608.22;6226708;28;102939;-61
2022/05/23 03:32:25;;;;;;;15.73;12.20;;;;;;;22.05;40.70;94602.28;6218040;28;102706;-58
2022/05/23 03:35:31;;;;;;;15.27;11.60;;;;;;;22.09;40.14;94605.88;6237689;28;103556;-59
2022/05/23 03:38:34;;;;;;;13.47;10.90;;;;;;;22.26;39.90;94612.28;6224370;27;103521;-62
2022/05/23 03:41:38;;;;;;;16.90;15.30;;;;;;;22.45;40.09;94625.25;6237145;28;102887;-61
2022/05/23 03:44:42;;;;;;;11.20;10.10;;;;;;;22.46;39.93;94622.28;6237309;28;102731;-62
2022/05/23 03:47:46;;;;;;;10.20;7.60;;;;;;;22.49;40.91;94621.63;6236208;28;102763;-62
2022/05/23 03:50:49;;;;;;;7.70;7.00;;;;;;;22.67;41.84;94607.16;6212415;27;103909;-61
2022/05/23 03:53:52;;;;;;;11.73;7.60;;;;;;;22.72;40.40;94608.91;6213649;28;102745;-61
2022/05/23 03:56:59;;;;;;;8.53;7.50;;;;;;;22.74;39.67;94627.25;6210317;28;103078;-63
2022/05/23 04:00:06;;;;;;;8.63;6.17;;;;;;;22.68;40.25;94621.28;6206715;28;102976;-64
2022/05/23 04:03:09;;;;;;;8.50;7.60;;;;;;;22.71;40.20;94626.00;6222459;28;102897;-62
2022/05/23 04:06:12;;;;;;;8.30;7.40;;;;;;;22.83;39.63;94626.09;6224245;28;102802;-61
2022/05/23 04:09:15;;;;;;;8.80;7.40;;;;;;;22.73;40.55;94615.78;6226925;28;102926;-62
2022/05/23 04:12:21;;;;;;;11.70;7.30;;;;;;;22.83;41.68;94615.41;6235056;28;102750;-63
2022/05/23 04:15:35;;;;;;;12.47;8.17;;;;;;;22.83;41.14;94603.97;6246882;28;102928;-62
2022/05/23 04:18:41;;;;;;;7.63;6.83;;;;;;;22.88;40.58;94596.59;6248219;28;102683;-62
2022/05/23 04:21:49;;;;;;;11.23;6.07;;;;;;;22.93;41.76;94609.72;6246274;28;102825;-62
2022/05/23 04:24:54;;;;;;;7.97;7.23;;;;;;;22.32;41.26;94619.00;6228458;28;102680;-62
2022/05/23 04:27:58;;;;;;;13.43;7.90;;;;;;;22.41;41.32;94615.22;6238517;28;102672;-61
2022/05/23 04:31:03;;;;;;;6.90;6.30;;;;;;;22.51;41.04;94608.75;6235926;28;102759;-61
2022/05/23 04:37:27;;;;;;;7.27;6.60;;;;;;;22.63;40.60;94600.13;6236225;28;103055;-61
2022/05/23 04:40:31;;;;;;;7.30;6.60;;;;;;;22.66;40.49;94608.25;6235612;28;103170;-61
2022/05/23 04:43:34;;;;;;;10.40;6.90;;;;;;;22.67;40.83;94612.50;6234701;28;103175;-61
2022/05/23 04:49:39;;;;;;;11.10;6.97;;;;;;;22.70;40.45;94605.75;6224040;27;102845;-61
2022/05/23 04:50:03;;;;;;;7.10;6.40;;;;;;;22.72;40.58;94608.13;6233907;27;103229;-61
2022/05/23 04:53:06;;;;;;;6.63;6.03;;;;;;;22.69;40.45;94588.19;6235153;28;103275;-61
2022/05/23 04:56:09;;;;;;;7.33;6.73;;;;;;;22.69;40.81;94585.53;6232716;28;102951;-62
2022/05/23 04:59:13;;;;;;;10.53;6.37;;;;;;;22.68;40.77;94582.09;6231664;28;102866;-61
2022/05/23 05:02:17;;;;;;;7.17;6.47;;;;;;;22.69;40.70;94588.19;6214556;28;103194;-61
2022/05/23 05:05:20;;;;;;;7.70;7.00;;;;;;;22.70;40.44;94606.56;6211307;28;102695;-61
2022/05/23 05:08:24;;;;;;;7.10;6.07;;;;;;;22.74;40.86;94590.69;6201883;28;104481;-61
2022/05/23 05:11:27;;;;;;;7.50;6.80;;;;;;;22.79;40.59;94595.03;6211583;28;103114;-61
2022/05/23 05:14:30;;;;;;;7.20;6.50;;;;;;;22.79;40.87;94593.16;6211371;28;102701;-61
2022/05/23 05:17:35;;;;;;;8.40;6.20;;;;;;;22.83;40.59;94590.63;6211448;28;102953;-61
2022/05/23 05:20:38;;;;;;;8.00;6.80;;;;;;;22.84;40.67;94586.84;6200045;28;103286;-61
2022/05/23 05:23:41;;;;;;;7.67;6.87;;;;;;;22.87;40.78;94583.56;6211621;28;103385;-62
2022/05/23 05:26:44;;;;;;;7.03;6.20;;;;;;;22.85;40.80;94589.22;6211384;28;103455;-62
2022/05/23 05:29:47;;;;;;;8.20;6.23;;;;;;;22.89;40.82;94578.69;6210397;28;102864;-62
2022/05/23 05:32:58;;;;;;;7.43;6.37;;;;;;;22.93;40.85;94572.38;6201353;28;102835;-62
2022/05/23 05:36:04;;;;;;;7.60;6.90;;;;;;;23.02;40.68;94567.00;6211042;28;103171;-62
2022/05/23 05:39:08;;;;;;;9.40;6.10;;;;;;;23.07;40.09;94566.81;6211584;28;102609;-63
2022/05/23 05:42:16;;;;;;;11.30;5.93;;;;;;;23.14;40.25;94574.28;6203833;28;102823;-62
2022/05/23 05:45:26;;;;;;;6.90;5.60;;;;;;;23.19;40.39;94577.59;6210100;28;102712;-61
2022/05/23 05:48:31;;;;;;;6.83;6.33;;;;;;;23.21;40.51;94583.38;6211143;28;103015;-61
2022/05/23 05:51:37;;;;;;;6.73;6.07;;;;;;;23.21;40.84;94588.72;6210018;28;102721;-62
2022/05/23 05:54:42;;;;;;;9.00;6.60;;;;;;;23.19;40.88;94596.25;6200960;28;103157;-62
2022/05/23 05:57:46;;;;;;;10.60;6.53;;;;;;;23.18;40.66;94599.22;6210320;28;102736;-61
2022/05/23 06:00:49;;;;;;;7.00;6.30;;;;;;;23.18;40.72;94600.00;6221093;28;102698;-61
2022/05/23 06:03:53;;;;;;;8.73;7.80;;;;;;;23.19;40.85;94604.28;6234588;27;102684;-62
2022/05/23 06:13:44;;;;;;;8.97;8.20;;;;;;;23.20;40.82;94592.50;6235444;28;102872;-61
2022/05/23 06:16:47;;;;;;;12.67;6.83;;;;;;;23.00;42.53;94588.66;6225035;27;102777;-62
2022/05/23 06:19:52;;;;;;;9.03;6.83;;;;;;;22.93;42.20;94576.94;6235158;28;102708;-61
2022/05/23 06:22:55;;;;;;;8.93;6.17;;;;;;;22.94;41.95;94573.16;6234287;28;103362;-61
2022/05/23 06:25:58;;;;;;;7.20;6.50;;;;;;;22.87;41.72;94568.34;6234935;28;103085;-61
2022/05/23 06:29:01;;;;;;;8.00;6.30;;;;;;;22.84;41.51;94560.97;6222413;28;102854;-62
2022/05/23 06:32:04;;;;;;;6.03;5.43;;;;;;;22.94;41.41;94562.50;6235082;28;103031;-62
2022/05/23 06:35:10;;;;;;;6.80;5.40;;;;;;;23.13;40.65;94559.38;6234550;28;102891;-61
2022/05/23 06:38:13;;;;;;;7.23;5.70;;;;;;;23.25;40.37;94546.91;6234348;28;102730;-61
2022/05/23 06:41:16;;;;;;;7.50;5.73;;;;;;;23.40;40.66;94548.25;6225447;28;102860;-61
2022/05/23 06:44:19;;;;;;;6.80;6.00;;;;;;;23.46;40.49;94543.47;6234633;28;102978;-61
2022/05/23 06:47:24;;;;;;;6.60;5.30;;;;;;;23.55;40.60;94538.88;6234703;28;102908;-61
2022/05/23 06:50:28;;;;;;;6.90;6.30;;;;;;;23.62;40.90;94536.44;6224116;28;102774;-62
2022/05/23 06:53:31;;;;;;;5.80;5.17;;;;;;;23.69;40.46;94541.25;6233800;28;102761;-63
2022/05/23 06:56:34;;;;;;;7.53;5.37;;;;;;;23.75;40.40;94535.38;6234779;28;102727;-61
2022/05/23 06:59:38;;;;;;;6.20;5.70;;;;;;;23.81;39.59;94526.03;6233205;28;103128;-62
2022/05/23 07:02:42;;;;;;;6.67;6.17;;;;;;;23.82;39.65;94532.16;6199418;27;102731;-61
2022/05/23 07:12:28;;;;;;;9.00;8.07;;;;;;;23.92;39.09;94531.78;6204732;28;102777;-63
2022/05/23 07:15:36;;;;;;;9.73;8.83;;;;;;;23.96;38.63;94539.91;6206222;27;102826;-59
2022/05/23 07:18:40;;;;;;;11.10;10.10;;;;;;;24.01;38.39;94535.16;6213413;28;102765;-62
2022/05/23 07:21:44;;;;;;;11.60;10.40;;;;;;;24.04;38.02;94544.44;6212551;28;102702;-61
2022/05/23 07:24:48;;;;;;;12.27;11.13;;;;;;;24.05;37.93;94530.72;6201158;27;103009;-61
2022/05/23 07:27:51;;;;;;;10.83;9.43;;;;;;;24.10;37.90;94537.75;6212538;28;103253;-62
2022/05/23 07:30:55;;;;;;;11.10;10.20;;;;;;;24.10;37.51;94535.06;6212334;28;103132;-61
2022/05/23 07:33:58;;;;;;;11.43;10.40;;;;;;;24.14;37.03;94549.34;6213324;28;102781;-62
2022/05/23 07:37:02;;;;;;;10.27;9.37;;;;;;;24.12;37.43;94535.53;6202487;27;102767;-62
2022/05/23 07:40:07;;;;;;;12.30;10.73;;;;;;;24.17;36.98;94532.63;6212299;28;102834;-62
2022/05/23 07:43:13;;;;;;;10.30;9.40;;;;;;;24.20;36.71;94542.69;6212394;28;102750;-62
2022/05/23 07:46:18;;;;;;;9.80;9.00;;;;;;;24.23;36.64;94536.66;6210193;27;102972;-62
2022/05/23 07:49:21;;;;;;;9.50;8.50;;;;;;;24.25;36.80;94533.66;6205561;28;102822;-61
2022/05/23 07:52:26;;;;;;;9.00;8.30;;;;;;;24.26;36.73;94532.53;6212658;28;102696;-61
2022/05/23 08:02:12;;;;;;;10.83;9.73;;;;;;;24.19;36.97;94533.06;6234131;28;102698;-61
2022/05/23 08:05:15;;;;;;;10.60;9.70;;;;;;;24.14;36.94;94542.09;6237739;28;103093;-62
2022/05/23 08:08:21;;;;;;;10.30;9.30;;;;;;;24.13;37.00;94531.72;6237126;28;103199;-61
2022/05/23 08:11:24;;;;;;;8.83;8.03;;;;;;;24.08;36.59;94527.38;6225568;27;106669;-62
2022/05/23 08:14:27;;;;;;;7.70;7.00;;;;;;;24.09;36.74;94538.84;6237302;28;102666;-61
2022/05/23 08:17:30;;;;;;;7.60;6.90;;;;;;;24.03;36.15;94532.94;6237713;28;102796;-62
2022/05/23 08:20:35;;;;;;;7.20;6.60;;;;;;;24.02;36.47;94526.00;6232152;27;103234;-62
2022/05/23 08:23:41;;;;;;;6.83;6.23;;;;;;;24.01;36.15;94535.16;6231966;28;102889;-61
2022/05/23 08:26:45;;;;;;;7.67;7.00;;;;;;;24.01;36.77;94531.69;6234303;28;103176;-61
2022/05/23 08:29:48;;;;;;;9.40;6.80;;;;;;;24.00;36.51;94530.13;6236106;28;102930;-62
2022/05/23 08:32:51;;;;;;;6.23;5.63;;;;;;;24.01;36.77;94527.13;6225999;27;102782;-62
2022/05/23 08:35:54;;;;;;;7.47;5.30;;;;;;;24.02;36.34;94533.25;6236758;28;102760;-61
2022/05/23 08:38:58;;;;;;;5.87;5.27;;;;;;;24.03;36.11;94527.59;6236929;28;102742;-61
2022/05/23 08:42:07;;;;;;;5.10;4.70;;;;;;;24.05;36.19;94528.06;6236301;28;102803;-62
2022/05/23 08:45:15;;;;;;;5.33;4.87;;;;;;;24.08;36.13;94518.59;6226878;27;103602;-62
2022/05/23 08:48:27;;;;;;;4.30;4.00;;;;;;;24.11;35.81;94517.91;6236529;28;102706;-62
2022/05/23 08:51:38;;;;;;;4.80;4.40;;;;;;;24.14;35.76;94512.69;6236558;28;102862;-61
2022/05/23 08:54:56;;;;;;;7.40;4.87;;;;;;;24.14;35.23;94522.59;6231370;27;102720;-62
2022/05/23 08:58:07;;;;;;;4.53;4.00;;;;;;;24.05;35.22;94519.25;6236151;28;103085;-63
2022/05/23 09:01:13;;;;;;;6.40;4.53;;;;;;;24.05;35.42;94513.91;6224447;28;103136;-61
2022/05/23 09:04:34;;;;;;;7.33;4.23;;;;;;;24.06;35.19;94518.91;6211683;28;102732;-61
2022/05/23 09:07:47;;;;;;;4.30;3.90;;;;;;;24.06;35.58;94510.13;6203477;27;104081;-62
2022/05/23 09:10:58;;;;;;;6.47;4.53;;;;;;;24.05;35.56;94513.91;6211172;28;103326;-62
2022/05/23 09:17:47;;;;;;;5.57;3.77;;;;;;;24.03;34.97;94511.56;6191543;27;103013;-63
2022/05/23 09:20:58;;;;;;;4.13;3.77;;;;;;;24.00;35.00;94508.75;6214577;28;103015;-61
2022/05/23 09:24:09;;;;;;;3.83;3.53;;;;;;;23.99;34.99;94505.28;6214067;28;103407;-61
2022/05/23 09:27:37;;;;;;;4.43;3.93;;;;;;;23.99;34.82;94502.59;6216083;28;103089;-62
2022/05/23 09:30:49;;;;;;;5.10;4.27;;;;;;;23.99;34.71;94501.81;6202075;27;103049;-64
2022/05/23 09:33:56;;;;;;;4.13;3.73;;;;;;;23.97;34.99;94494.13;6210656;28;102684;-64
2022/05/23 09:37:07;;;;;;;4.20;3.90;;;;;;;23.97;34.65;94501.38;6214507;28;103012;-63
2022/05/23 09:40:36;;;;;;;4.23;3.57;;;;;;;23.97;35.05;94501.38;6214012;28;102828;-64
2022/05/23 09:47:48;;;;;;;3.60;3.30;;;;;;;23.97;34.46;94504.03;6210879;28;102791;-63
2022/05/23 09:51:00;;;;;;;4.17;3.30;;;;;;;23.96;34.90;94505.16;6205806;28;103054;-63
2022/05/23 09:54:04;;;;;;;3.70;3.40;;;;;;;23.97;34.83;94498.69;6205773;28;102740;-62
2022/05/23 09:57:21;;;;;;;4.27;3.40;;;;;;;23.93;34.47;94498.59;6209608;28;102814;-62
2022/05/23 10:00:34;;;;;;;4.67;4.37;;;;;;;23.91;34.94;94498.13;6217088;28;103244;-62
2022/05/23 10:03:49;;;;;;;5.53;5.13;;;;;;;23.93;34.86;94495.13;6224664;28;103142;-62
2022/05/23 10:06:52;;;;;;;7.53;6.90;;;;;;;23.94;34.88;94486.00;6235558;28;102726;-62
2022/05/23 10:09:58;;;;;;;7.90;7.10;;;;;;;23.96;34.46;94478.44;6234908;28;102790;-62
2022/05/23 10:13:24;;;;;;;8.33;7.63;;;;;;;23.99;35.08;94475.88;6234734;28;102784;-61
2022/05/23 10:16:31;;;;;;;9.00;8.13;;;;;;;23.99;34.90;94477.75;6228029;27;103003;-61
2022/05/23 10:19:37;;;;;;;10.53;9.53;;;;;;;23.98;34.37;94482.31;6234928;28;102666;-61
2022/05/23 10:22:54;;;;;;;13.83;12.73;;;;;;;24.01;34.22;94473.66;6235029;28;102707;-62
2022/05/23 10:26:02;;;;;;;13.80;12.60;;;;;;;23.98;34.99;94460.94;6223232;27;104508;-62
2022/05/23 10:29:12;;;;;;;13.97;12.77;;;;;;;24.03;34.67;94473.38;6234341;28;102741;-61
2022/05/23 10:32:30;;;;;;;16.00;14.60;;;;;;;24.01;34.94;94471.00;6234167;28;102955;-61
2022/05/23 10:35:43;;;;;;;15.90;14.60;;;;;;;24.01;34.59;94471.00;6236449;28;103067;-62
2022/05/23 10:42:21;;;;;;;16.97;15.47;;;;;;;24.03;34.98;94454.66;6236162;28;103090;-60
2022/05/23 10:45:36;;;;;;;14.40;13.20;;;;;;;24.03;34.58;94462.69;6237848;28;103201;-62
2022/05/23 10:48:57;;;;;;;14.53;13.30;;;;;;;24.04;34.68;94448.19;6236113;27;103194;-61
2022/05/23 10:52:18;;;;;;;15.80;14.50;;;;;;;24.05;35.02;94449.75;6241505;28;103045;-61
2022/05/23 10:55:29;;;;;;;15.60;14.30;;;;;;;24.06;34.88;94451.31;6242689;28;103196;-62
2022/05/23 10:58:54;;;;;;;16.57;15.27;;;;;;;24.04;34.72;94448.19;6242700;28;103126;-61
2022/05/23 11:02:21;;;;;;;16.03;14.77;;;;;;;24.05;34.54;94441.75;6223209;28;103264;-61
2022/05/23 11:05:38;;;;;;;18.37;16.87;;;;;;;24.05;34.75;94444.41;6216900;28;102695;-60
2022/05/23 11:09:05;;;;;;;18.57;17.00;;;;;;;24.05;34.53;94439.06;6216056;28;102764;-62
2022/05/23 11:12:20;;;;;;;20.20;18.50;;;;;;;24.04;34.74;94432.94;6209218;28;103554;-62
2022/05/23 11:15:52;;;;;;;18.60;17.10;;;;;;;24.04;34.44;94432.16;6216795;28;103207;-62
2022/05/23 11:19:27;;;;;;;18.97;17.47;;;;;;;24.06;34.65;94435.28;6216999;28;102646;-61
2022/05/23 11:22:44;;;;;;;19.97;18.47;;;;;;;24.04;34.30;94422.25;6213953;27;103613;-64
2022/05/23 11:26:02;;;;;;;21.50;19.87;;;;;;;24.04;34.68;94429.50;6224986;28;103073;-64
2022/05/23 11:39:53;;;;;;;15.30;14.10;;;;;;;24.07;34.41;94421.56;6207118;28;103135;-58
2022/05/23 11:43:23;;;;;;;15.53;14.40;;;;;;;24.08;34.35;94417.00;6215362;28;102901;-58
2022/05/23 11:47:05;;;;;;;13.73;12.70;;;;;;;24.09;34.25;94429.25;6210457;27;103353;-59
2022/05/23 11:50:30;;;;;;;11.30;10.40;;;;;;;24.11;34.25;94419.00;6216128;28;102653;-58
2022/05/23 11:54:00;;;;;;;11.03;10.13;;;;;;;24.11;34.39;94429.72;6215619;28;102751;-57
2022/05/23 11:57:40;;;;;;;10.47;9.67;;;;;;;24.10;34.00;94425.47;6207618;27;103133;-59
2022/05/23 12:01:09;;;;;;;9.60;8.80;;;;;;;24.08;34.36;94436.50;6223757;28;102887;-59
2022/05/23 12:04:22;;;;;;;9.70;8.80;;;;;;;24.09;34.54;94431.94;6239934;28;102790;-59
2022/05/23 12:08:10;;;;;;;9.73;8.30;;;;;;;24.08;34.74;94430.38;6233876;27;102662;-62
2022/05/23 12:11:32;;;;;;;7.40;6.83;;;;;;;24.09;34.49;94432.72;6239799;28;102925;-59
2022/05/23 12:14:54;;;;;;;6.80;6.30;;;;;;;24.10;34.46;94426.25;6237861;28;102960;-59
2022/05/23 12:18:01;;;;;;;5.77;5.37;;;;;;;24.09;34.22;94419.34;6234064;28;103038;-61
2022/05/23 12:21:07;;;;;;;5.50;5.10;;;;;;;24.11;34.45;94413.66;6232410;28;103362;-59
2022/05/23 12:24:19;;;;;;;5.97;5.57;;;;;;;24.09;34.77;94414.00;6236858;28;103015;-60
2022/05/23 12:28:10;;;;;;;5.63;5.13;;;;;;;24.10;34.39;94409.44;6237305;28;102938;-60
2022/05/23 12:31:16;;;;;;;4.90;4.40;;;;;;;24.11;34.33;94408.31;6227245;28;102786;-60
2022/05/23 12:34:20;;;;;;;4.53;4.13;;;;;;;24.11;34.11;94416.34;6236910;28;102677;-60
2022/05/23 12:37:30;;;;;;;4.43;4.03;;;;;;;24.12;33.83;94407.19;6237138;28;102713;-59
2022/05/23 12:40:40;;;;;;;3.60;3.40;;;;;;;24.12;33.90;94401.84;6236627;28;102708;-60
2022/05/23 12:44:02;;;;;;;5.23;3.60;;;;;;;24.12;33.80;94407.19;6231170;28;102885;-60
2022/05/23 12:47:21;;;;;;;3.63;3.43;;;;;;;24.14;33.80;94402.28;6236585;28;103001;-60
2022/05/23 12:50:35;;;;;;;3.47;3.17;;;;;;;24.14;34.03;94413.00;6236408;28;102782;-60
2022/05/23 12:53:47;;;;;;;3.33;3.13;;;;;;;24.12;34.20;94415.22;6227038;28;103194;-60
2022/05/23 12:57:26;;;;;;;3.70;3.33;;;;;;;24.14;33.86;94410.31;6236165;28;102811;-60
2022/05/23 13:00:36;;;;;;;2.80;2.60;;;;;;;24.12;33.83;94410.66;6228529;28;103059;-59
2022/05/23 13:03:52;;;;;;;3.00;2.80;;;;;;;24.11;33.66;94400.28;6206784;27;102951;-59
2022/05/23 13:07:01;;;;;;;2.87;2.67;;;;;;;24.13;33.98;94406.88;6206559;28;102850;-60
2022/05/23 13:10:08;;;;;;;3.33;3.13;;;;;;;24.13;33.56;94393.50;6210520;28;102783;-60
2022/05/23 13:13:19;;;;;;;2.93;2.73;;;;;;;24.16;33.52;94397.41;6211395;28;103255;-60
2022/05/23 13:16:25;;;;;;;2.70;2.50;;;;;;;24.13;33.99;94403.41;6201348;28;103966;-60
2022/05/23 13:22:51;;;;;;;2.60;2.40;;;;;;;24.15;33.59;94406.53;6210848;28;103136;-60
2022/05/23 13:25:54;;;;;;;3.87;2.60;;;;;;;24.14;33.45;94400.41;6210927;28;102732;-60
2022/05/23 13:28:57;;;;;;;2.63;2.43;;;;;;;24.13;33.63;94403.41;6200714;28;103856;-60
2022/05/23 13:32:03;;;;;;;3.03;2.77;;;;;;;24.13;33.81;94406.88;6210710;28;103342;-59
2022/05/23 13:35:20;;;;;;;2.50;2.30;;;;;;;24.12;33.53;94396.50;6210741;28;102723;-60
2022/05/23 13:38:25;;;;;;;2.47;2.27;;;;;;;24.12;33.47;94405.31;6202023;27;103954;-60
2022/05/23 13:41:30;;;;;;;2.40;2.23;;;;;;;24.14;33.21;94404.97;6210887;28;102748;-60
2022/05/23 13:44:35;;;;;;;2.40;2.23;;;;;;;24.11;33.81;94405.66;6210616;28;102684;-58
2022/05/23 13:47:53;;;;;;;2.47;2.33;;;;;;;24.12;33.78;94410.66;6210685;28;102785;-60
2022/05/23 13:51:01;;;;;;;2.27;2.07;;;;;;;24.12;33.36;94412.56;6200565;28;102856;-60
2022/05/23 13:54:10;;;;;;;2.40;2.20;;;;;;;24.13;33.71;94396.16;6209103;28;103026;-60
2022/05/23 13:57:17;;;;;;;2.57;2.37;;;;;;;24.10;33.90;94399.53;6210638;28;102755;-60
2022/05/23 14:00:24;;;;;;;2.67;2.47;;;;;;;24.13;33.82;94403.41;6212648;27;103034;-60
2022/05/23 14:03:34;;;;;;;4.33;2.33;;;;;;;24.13;33.44;94390.81;6229985;28;102898;-61
2022/05/23 14:06:44;;;;;;;2.47;2.10;;;;;;;24.13;33.55;94390.06;6234766;28;102687;-60
2022/05/23 14:09:51;;;;;;;2.10;2.00;;;;;;;24.10;33.75;94393.41;6234952;28;103275;-60
2022/05/23 14:12:55;;;;;;;2.20;2.10;;;;;;;24.11;33.90;94378.91;6225023;27;103187;-60
2022/05/23 14:15:59;;;;;;;1.80;1.70;;;;;;;24.10;33.80;94396.84;6235319;28;102876;-59
2022/05/23 14:19:13;;;;;;;2.00;1.90;;;;;;;24.12;33.90;94388.50;6235459;28;102706;-60
2022/05/23 14:22:25;;;;;;;2.40;2.20;;;;;;;24.11;33.74;94379.69;6234649;28;103096;-58
2022/05/23 14:25:33;;;;;;;2.00;1.90;;;;;;;24.12;34.70;94389.28;6227311;28;103067;-59
2022/05/23 14:28:55;;;;;;;3.13;2.33;;;;;;;24.13;34.47;94382.03;6239153;28;102818;-59
2022/05/23 14:32:01;;;;;;;2.53;2.10;;;;;;;24.11;34.47;94385.03;6212433;28;103331;-58
2022/05/23 14:35:12;;;;;;;3.23;2.27;;;;;;;24.12;34.61;94389.28;6204056;27;102818;-59
2022/05/23 14:38:26;;;;;;;3.90;2.30;;;;;;;24.14;34.20;94387.03;6209622;28;102894;-59
2022/05/23 14:41:32;;;;;;;5.03;2.57;;;;;;;24.14;34.29;94389.72;6214402;28;102758;-60
2022/05/23 14:44:40;;;;;;;4.63;2.60;;;;;;;24.20;33.56;94395.63;6213990;28;103022;-60
2022/05/23 14:47:59;;;;;;;2.93;2.60;;;;;;;24.23;33.00;94392.28;6201108;28;103234;-61
2022/05/23 14:51:13;;;;;;;3.10;2.40;;;;;;;24.20;33.33;94387.63;6215105;28;102794;-60
2022/05/23 15:01:21;;;;;;;2.70;2.50;;;;;;;24.29;33.54;94390.94;6213139;28;102874;-61
2022/05/23 15:04:33;;;;;;;3.13;2.83;;;;;;;24.30;33.81;94395.16;6197191;28;103163;-60
2022/05/23 15:07:41;;;;;;;6.23;3.20;;;;;;;24.31;33.83;94391.38;6190465;28;103290;-61
2022/05/23 15:10:48;;;;;;;4.20;3.17;;;;;;;24.33;33.78;94399.06;6179942;28;102783;-61
2022/05/23 15:14:01;;;;;;;3.57;2.93;;;;;;;24.33;33.15;94391.81;6191293;28;102841;-61
2022/05/23 15:17:13;;;;;;;3.67;3.10;;;;;;;24.37;33.18;94391.94;6190733;28;102712;-61
2022/05/23 15:20:24;;;;;;;3.70;3.37;;;;;;;24.35;33.25;94392.25;6187703;28;102768;-65
2022/05/23 15:23:40;;;;;;;3.37;3.17;;;;;;;24.31;33.42;94395.94;6199775;28;102884;-65
2022/05/23 15:27:07;;;;;;;6.50;5.07;;;;;;;24.31;32.94;94399.41;6199087;28;102972;-65
2022/05/23 15:30:41;;;;;;;;;;;;;;;;;;;;;
2022/05/23 15:34:20;;;;;;;7.00;4.30;;;;;;;24.39;33.40;94401.19;6244589;27;103025;-63
2022/05/23 15:37:52;;;;;;;4.33;3.93;;;;;;;24.32;33.34;94398.28;6251978;28;103104;-65
2022/05/23 15:41:13;;;;;;;6.43;4.43;;;;;;;24.32;34.45;94395.59;6246028;28;102869;-64
2022/05/23 15:44:39;;;;;;;5.37;4.87;;;;;;;24.40;35.98;94392.06;6249995;28;103025;-63
2022/05/23 15:47:52;;;;;;;7.27;4.60;;;;;;;24.37;35.85;94395.41;6242914;28;103068;-64
2022/05/23 15:51:06;;;;;;;4.40;4.00;;;;;;;24.32;36.28;94403.63;6230706;28;103491;-62